Terminal Aerodrome Forecast
Issued by NWS

Home | Current Version | Previous Version | Graphics & Text | Print | Product List | Glossary On
Versions: 1 2 3 4 5 6 7 8 9 10 11 12 13 14 15 16 17 18 19 20 21 22 23 24 25
300
FTUS43 KTOP 221725
TAFFOE
TAF
KFOE 221725Z 2218/2318 23007KT P6SM BKN080
     FM222200 24009KT P6SM -RA VCTS BKN050CB
      TEMPO 2222/2223 4SM RA BKN030
     FM230000 21004KT P6SM SCT100
     FM230900 32007KT P6SM -SHRA OVC030
     FM231200 32011KT P6SM SCT012 OVC025=

USA.gov is the U.S. government's official web portal to all federal, state and local government web resources and services.